sensor_id;sensor_type;location;lat;lon;timestamp;P1;durP1;ratioP1;P2;durP2;ratioP2
48588;SDS011;34369;51.174;6.738;2023-04-03T00:02:27;42.50;;;39.90;;
48588;SDS011;34369;51.174;6.738;2023-04-03T00:04:59;47.93;;;45.13;;
48588;SDS011;34369;51.174;6.738;2023-04-03T00:07:33;45.03;;;42.23;;
48588;SDS011;34369;51.174;6.738;2023-04-03T00:10:05;44.70;;;42.10;;
48588;SDS011;34369;51.174;6.738;2023-04-03T00:12:39;43.90;;;41.40;;
48588;SDS011;34369;51.174;6.738;2023-04-03T00:15:12;43.13;;;40.53;;
48588;SDS011;34369;51.174;6.738;2023-04-03T00:17:44;46.80;;;43.90;;
48588;SDS011;34369;51.174;6.738;2023-04-03T00:20:16;48.10;;;45.30;;
48588;SDS011;34369;51.174;6.738;2023-04-03T00:22:50;44.20;;;41.50;;
48588;SDS011;34369;51.174;6.738;2023-04-03T00:25:22;44.83;;;42.27;;
48588;SDS011;34369;51.174;6.738;2023-04-03T00:27:54;43.40;;;40.90;;
48588;SDS011;34369;51.174;6.738;2023-04-03T00:30:26;43.40;;;40.83;;
48588;SDS011;34369;51.174;6.738;2023-04-03T00:32:58;45.83;;;43.23;;
48588;SDS011;34369;51.174;6.738;2023-04-03T00:35:30;45.23;;;42.53;;
48588;SDS011;34369;51.174;6.738;2023-04-03T00:38:04;42.57;;;40.07;;
48588;SDS011;34369;51.174;6.738;2023-04-03T00:40:37;44.30;;;41.50;;
48588;SDS011;34369;51.174;6.738;2023-04-03T00:43:13;45.13;;;42.53;;
48588;SDS011;34369;51.174;6.738;2023-04-03T00:45:48;48.08;;;45.13;;
48588;SDS011;34369;51.174;6.738;2023-04-03T00:48:23;43.00;;;40.50;;
48588;SDS011;34369;51.174;6.738;2023-04-03T00:50:58;48.50;;;45.80;;
48588;SDS011;34369;51.174;6.738;2023-04-03T00:53:33;46.43;;;43.80;;
48588;SDS011;34369;51.174;6.738;2023-04-03T00:56:11;44.93;;;42.30;;
48588;SDS011;34369;51.174;6.738;2023-04-03T00:58:48;47.45;;;44.70;;
48588;SDS011;34369;51.174;6.738;2023-04-03T01:01:26;44.93;;;42.33;;
48588;SDS011;34369;51.174;6.738;2023-04-03T01:04:00;45.70;;;42.90;;
48588;SDS011;34369;51.174;6.738;2023-04-03T01:06:34;47.90;;;45.30;;
48588;SDS011;34369;51.174;6.738;2023-04-03T01:09:09;43.70;;;41.10;;
48588;SDS011;34369;51.174;6.738;2023-04-03T01:11:41;47.63;;;44.93;;
48588;SDS011;34369;51.174;6.738;2023-04-03T01:14:13;41.40;;;38.73;;
48588;SDS011;34369;51.174;6.738;2023-04-03T01:16:51;46.23;;;43.53;;
48588;SDS011;34369;51.174;6.738;2023-04-03T01:19:24;46.70;;;43.90;;
48588;SDS011;34369;51.174;6.738;2023-04-03T01:22:01;44.83;;;42.23;;
48588;SDS011;34369;51.174;6.738;2023-04-03T01:24:49;48.80;;;46.10;;
48588;SDS011;34369;51.174;6.738;2023-04-03T01:27:23;45.70;;;43.13;;
48588;SDS011;34369;51.174;6.738;2023-04-03T01:29:55;46.80;;;44.10;;
48588;SDS011;34369;51.174;6.738;2023-04-03T01:32:29;43.93;;;41.43;;
48588;SDS011;34369;51.174;6.738;2023-04-03T01:35:01;43.37;;;40.67;;
48588;SDS011;34369;51.174;6.738;2023-04-03T01:37:33;48.23;;;45.53;;
48588;SDS011;34369;51.174;6.738;2023-04-03T01:40:06;46.10;;;43.20;;
48588;SDS011;34369;51.174;6.738;2023-04-03T01:42:39;45.40;;;42.73;;
48588;SDS011;34369;51.174;6.738;2023-04-03T01:45:11;47.60;;;44.70;;
48588;SDS011;34369;51.174;6.738;2023-04-03T01:47:45;46.97;;;44.27;;
48588;SDS011;34369;51.174;6.738;2023-04-03T01:50:16;43.70;;;41.03;;
48588;SDS011;34369;51.174;6.738;2023-04-03T01:52:48;49.63;;;46.83;;
48588;SDS011;34369;51.174;6.738;2023-04-03T01:55:20;46.33;;;43.73;;
48588;SDS011;34369;51.174;6.738;2023-04-03T01:57:52;47.13;;;44.53;;
48588;SDS011;34369;51.174;6.738;2023-04-03T02:00:24;44.03;;;41.17;;
48588;SDS011;34369;51.174;6.738;2023-04-03T02:02:58;45.80;;;43.20;;
48588;SDS011;34369;51.174;6.738;2023-04-03T02:05:30;46.00;;;43.13;;
48588;SDS011;34369;51.174;6.738;2023-04-03T02:08:02;44.03;;;41.43;;
48588;SDS011;34369;51.174;6.738;2023-04-03T02:10:35;44.47;;;41.77;;
48588;SDS011;34369;51.174;6.738;2023-04-03T02:13:07;41.33;;;38.73;;
48588;SDS011;34369;51.174;6.738;2023-04-03T02:15:39;45.80;;;43.17;;
48588;SDS011;34369;51.174;6.738;2023-04-03T02:18:13;43.67;;;40.97;;
48588;SDS011;34369;51.174;6.738;2023-04-03T02:20:46;43.73;;;41.23;;
48588;SDS011;34369;51.174;6.738;2023-04-03T02:23:18;41.40;;;38.90;;
48588;SDS011;34369;51.174;6.738;2023-04-03T02:25:50;43.00;;;40.40;;
48588;SDS011;34369;51.174;6.738;2023-04-03T02:28:22;42.23;;;39.83;;
48588;SDS011;34369;51.174;6.738;2023-04-03T02:30:53;41.13;;;38.50;;
48588;SDS011;34369;51.174;6.738;2023-04-03T02:33:27;44.17;;;41.53;;
48588;SDS011;34369;51.174;6.738;2023-04-03T02:35:59;44.30;;;41.60;;
48588;SDS011;34369;51.174;6.738;2023-04-03T02:38:31;43.23;;;40.60;;
48588;SDS011;34369;51.174;6.738;2023-04-03T02:41:04;41.33;;;38.83;;
48588;SDS011;34369;51.174;6.738;2023-04-03T02:43:38;45.57;;;42.87;;
48588;SDS011;34369;51.174;6.738;2023-04-03T02:46:10;41.63;;;39.17;;
48588;SDS011;34369;51.174;6.738;2023-04-03T02:48:46;41.63;;;39.00;;
48588;SDS011;34369;51.174;6.738;2023-04-03T02:51:18;47.30;;;44.60;;
48588;SDS011;34369;51.174;6.738;2023-04-03T02:53:50;42.97;;;40.47;;
48588;SDS011;34369;51.174;6.738;2023-04-03T02:56:21;45.57;;;42.90;;
48588;SDS011;34369;51.174;6.738;2023-04-03T02:58:53;40.30;;;37.87;;
48588;SDS011;34369;51.174;6.738;2023-04-03T03:01:25;41.97;;;39.47;;
48588;SDS011;34369;51.174;6.738;2023-04-03T03:04:02;40.90;;;38.50;;
48588;SDS011;34369;51.174;6.738;2023-04-03T03:06:34;45.87;;;43.17;;
48588;SDS011;34369;51.174;6.738;2023-04-03T03:09:06;39.00;;;36.50;;
48588;SDS011;34369;51.174;6.738;2023-04-03T03:11:38;40.07;;;37.67;;
48588;SDS011;34369;51.174;6.738;2023-04-03T03:14:10;44.27;;;41.57;;
48588;SDS011;34369;51.174;6.738;2023-04-03T03:16:42;40.17;;;37.57;;
48588;SDS011;34369;51.174;6.738;2023-04-03T03:19:15;41.97;;;39.47;;
48588;SDS011;34369;51.174;6.738;2023-04-03T03:21:47;47.00;;;44.30;;
48588;SDS011;34369;51.174;6.738;2023-04-03T03:24:20;43.13;;;40.53;;
48588;SDS011;34369;51.174;6.738;2023-04-03T03:26:52;42.40;;;39.73;;
48588;SDS011;34369;51.174;6.738;2023-04-03T03:29:24;46.47;;;43.83;;
48588;SDS011;34369;51.174;6.738;2023-04-03T03:31:56;44.60;;;41.90;;
48588;SDS011;34369;51.174;6.738;2023-04-03T03:34:29;43.97;;;41.37;;
48588;SDS011;34369;51.174;6.738;2023-04-03T03:37:01;41.87;;;39.37;;
48588;SDS011;34369;51.174;6.738;2023-04-03T03:39:33;41.53;;;38.93;;
48588;SDS011;34369;51.174;6.738;2023-04-03T03:42:05;44.43;;;41.83;;
48588;SDS011;34369;51.174;6.738;2023-04-03T03:44:36;45.57;;;42.87;;
48588;SDS011;34369;51.174;6.738;2023-04-03T03:47:08;41.37;;;38.57;;
48588;SDS011;34369;51.174;6.738;2023-04-03T03:49:42;48.10;;;45.30;;
48588;SDS011;34369;51.174;6.738;2023-04-03T03:52:14;43.63;;;41.03;;
48588;SDS011;34369;51.174;6.738;2023-04-03T03:54:46;42.07;;;39.47;;
48588;SDS011;34369;51.174;6.738;2023-04-03T03:57:18;41.27;;;38.67;;
48588;SDS011;34369;51.174;6.738;2023-04-03T03:59:50;41.93;;;39.33;;
48588;SDS011;34369;51.174;6.738;2023-04-03T04:02:22;42.77;;;40.20;;
48588;SDS011;34369;51.174;6.738;2023-04-03T04:04:56;48.13;;;45.27;;
48588;SDS011;34369;51.174;6.738;2023-04-03T04:07:28;43.27;;;40.67;;
48588;SDS011;34369;51.174;6.738;2023-04-03T04:09:59;43.87;;;41.37;;
48588;SDS011;34369;51.174;6.738;2023-04-03T04:12:31;42.73;;;40.13;;
48588;SDS011;34369;51.174;6.738;2023-04-03T04:15:05;41.30;;;38.80;;
48588;SDS011;34369;51.174;6.738;2023-04-03T04:17:39;46.43;;;43.53;;
48588;SDS011;34369;51.174;6.738;2023-04-03T04:20:12;43.13;;;40.43;;
48588;SDS011;34369;51.174;6.738;2023-04-03T04:22:44;45.50;;;42.90;;
48588;SDS011;34369;51.174;6.738;2023-04-03T04:25:16;40.57;;;38.07;;
48588;SDS011;34369;51.174;6.738;2023-04-03T04:27:48;44.70;;;42.00;;
48588;SDS011;34369;51.174;6.738;2023-04-03T04:30:19;41.77;;;39.20;;
48588;SDS011;34369;51.174;6.738;2023-04-03T04:32:51;42.10;;;39.50;;
48588;SDS011;34369;51.174;6.738;2023-04-03T04:35:25;44.37;;;41.77;;
48588;SDS011;34369;51.174;6.738;2023-04-03T04:37:56;46.53;;;43.83;;
48588;SDS011;34369;51.174;6.738;2023-04-03T04:40:28;43.30;;;40.73;;
48588;SDS011;34369;51.174;6.738;2023-04-03T04:43:01;45.77;;;43.17;;
48588;SDS011;34369;51.174;6.738;2023-04-03T04:45:32;44.00;;;41.40;;
48588;SDS011;34369;51.174;6.738;2023-04-03T04:48:04;43.73;;;41.03;;
48588;SDS011;34369;51.174;6.738;2023-04-03T04:50:38;42.53;;;39.83;;
48588;SDS011;34369;51.174;6.738;2023-04-03T04:53:10;43.77;;;41.27;;
48588;SDS011;34369;51.174;6.738;2023-04-03T04:55:41;46.57;;;43.97;;
48588;SDS011;34369;51.174;6.738;2023-04-03T04:58:13;41.27;;;38.63;;
48588;SDS011;34369;51.174;6.738;2023-04-03T05:00:45;42.70;;;40.10;;
48588;SDS011;34369;51.174;6.738;2023-04-03T05:03:18;46.03;;;43.33;;
48588;SDS011;34369;51.174;6.738;2023-04-03T05:05:51;43.50;;;41.00;;
48588;SDS011;34369;51.174;6.738;2023-04-03T05:08:23;41.20;;;38.70;;
48588;SDS011;34369;51.174;6.738;2023-04-03T05:10:56;42.70;;;40.10;;
48588;SDS011;34369;51.174;6.738;2023-04-03T05:13:28;42.50;;;39.47;;
48588;SDS011;34369;51.174;6.738;2023-04-03T05:16:00;43.73;;;41.07;;
48588;SDS011;34369;51.174;6.738;2023-04-03T05:18:33;43.60;;;40.90;;
48588;SDS011;34369;51.174;6.738;2023-04-03T05:21:06;46.13;;;43.50;;
48588;SDS011;34369;51.174;6.738;2023-04-03T05:23:38;41.53;;;39.03;;
48588;SDS011;34369;51.174;6.738;2023-04-03T05:26:10;46.60;;;43.90;;
48588;SDS011;34369;51.174;6.738;2023-04-03T05:28:43;42.90;;;40.40;;
48588;SDS011;34369;51.174;6.738;2023-04-03T05:31:15;43.80;;;41.30;;
48588;SDS011;34369;51.174;6.738;2023-04-03T05:33:47;40.70;;;38.10;;
48588;SDS011;34369;51.174;6.738;2023-04-03T05:36:20;46.37;;;43.73;;
48588;SDS011;34369;51.174;6.738;2023-04-03T05:38:52;43.70;;;41.10;;
48588;SDS011;34369;51.174;6.738;2023-04-03T05:41:26;45.90;;;43.30;;
48588;SDS011;34369;51.174;6.738;2023-04-03T05:43:58;41.70;;;39.20;;
48588;SDS011;34369;51.174;6.738;2023-04-03T05:46:30;42.23;;;39.83;;
48588;SDS011;34369;51.174;6.738;2023-04-03T05:49:03;41.33;;;38.73;;
48588;SDS011;34369;51.174;6.738;2023-04-03T05:51:37;43.80;;;40.97;;
48588;SDS011;34369;51.174;6.738;2023-04-03T05:54:11;45.33;;;42.63;;
48588;SDS011;34369;51.174;6.738;2023-04-03T05:56:47;45.27;;;42.60;;
48588;SDS011;34369;51.174;6.738;2023-04-03T05:59:19;46.90;;;44.30;;
48588;SDS011;34369;51.174;6.738;2023-04-03T06:01:52;41.47;;;38.77;;
48588;SDS011;34369;51.174;6.738;2023-04-03T06:04:24;43.03;;;40.53;;
48588;SDS011;34369;51.174;6.738;2023-04-03T06:06:58;43.40;;;40.80;;
48588;SDS011;34369;51.174;6.738;2023-04-03T06:09:30;42.47;;;39.67;;
48588;SDS011;34369;51.174;6.738;2023-04-03T06:12:02;40.03;;;37.53;;
48588;SDS011;34369;51.174;6.738;2023-04-03T06:14:35;40.70;;;38.30;;
48588;SDS011;34369;51.174;6.738;2023-04-03T06:17:07;46.37;;;43.67;;
48588;SDS011;34369;51.174;6.738;2023-04-03T06:19:39;42.10;;;39.53;;
48588;SDS011;34369;51.174;6.738;2023-04-03T06:22:13;40.93;;;38.33;;
48588;SDS011;34369;51.174;6.738;2023-04-03T06:24:45;43.83;;;41.23;;
48588;SDS011;34369;51.174;6.738;2023-04-03T06:27:17;39.23;;;36.70;;
48588;SDS011;34369;51.174;6.738;2023-04-03T06:29:49;42.50;;;39.80;;
48588;SDS011;34369;51.174;6.738;2023-04-03T06:32:21;40.47;;;37.97;;
48588;SDS011;34369;51.174;6.738;2023-04-03T06:34:53;41.03;;;38.47;;
48588;SDS011;34369;51.174;6.738;2023-04-03T06:37:28;39.50;;;37.17;;
48588;SDS011;34369;51.174;6.738;2023-04-03T06:40:00;41.17;;;38.63;;
48588;SDS011;34369;51.174;6.738;2023-04-03T06:42:33;41.30;;;38.67;;
48588;SDS011;34369;51.174;6.738;2023-04-03T06:45:06;40.83;;;38.30;;
48588;SDS011;34369;51.174;6.738;2023-04-03T06:47:41;39.10;;;36.70;;
48588;SDS011;34369;51.174;6.738;2023-04-03T06:50:13;39.30;;;36.90;;
48588;SDS011;34369;51.174;6.738;2023-04-03T06:52:47;40.37;;;37.87;;
48588;SDS011;34369;51.174;6.738;2023-04-03T06:55:19;40.07;;;37.33;;
48588;SDS011;34369;51.174;6.738;2023-04-03T06:57:53;39.40;;;36.90;;
48588;SDS011;34369;51.174;6.738;2023-04-03T07:00:26;39.53;;;37.03;;
48588;SDS011;34369;51.174;6.738;2023-04-03T07:02:58;40.00;;;37.40;;
48588;SDS011;34369;51.174;6.738;2023-04-03T07:05:30;39.27;;;36.83;;
48588;SDS011;34369;51.174;6.738;2023-04-03T07:08:04;39.73;;;37.33;;
48588;SDS011;34369;51.174;6.738;2023-04-03T07:10:37;37.13;;;34.63;;
48588;SDS011;34369;51.174;6.738;2023-04-03T07:13:09;37.07;;;34.63;;
48588;SDS011;34369;51.174;6.738;2023-04-03T07:15:41;36.20;;;33.77;;
48588;SDS011;34369;51.174;6.738;2023-04-03T07:18:14;37.57;;;35.20;;
48588;SDS011;34369;51.174;6.738;2023-04-03T07:20:46;35.03;;;32.80;;
48588;SDS011;34369;51.174;6.738;2023-04-03T07:23:21;36.70;;;34.43;;
48588;SDS011;34369;51.174;6.738;2023-04-03T07:25:53;35.53;;;33.23;;
48588;SDS011;34369;51.174;6.738;2023-04-03T07:28:26;35.33;;;33.03;;
48588;SDS011;34369;51.174;6.738;2023-04-03T07:31:00;35.40;;;33.10;;
48588;SDS011;34369;51.174;6.738;2023-04-03T07:33:35;34.03;;;31.67;;
48588;SDS011;34369;51.174;6.738;2023-04-03T07:36:08;33.78;;;31.65;;
48588;SDS011;34369;51.174;6.738;2023-04-03T07:38:48;33.70;;;31.60;;
48588;SDS011;34369;51.174;6.738;2023-04-03T07:41:20;33.20;;;31.10;;
48588;SDS011;34369;51.174;6.738;2023-04-03T07:43:52;33.65;;;31.45;;
48588;SDS011;34369;51.174;6.738;2023-04-03T07:46:26;33.47;;;31.20;;
48588;SDS011;34369;51.174;6.738;2023-04-03T07:48:58;33.25;;;31.05;;
48588;SDS011;34369;51.174;6.738;2023-04-03T07:51:30;34.43;;;32.20;;
48588;SDS011;34369;51.174;6.738;2023-04-03T07:54:04;32.90;;;30.77;;
48588;SDS011;34369;51.174;6.738;2023-04-03T07:56:36;33.15;;;31.05;;
48588;SDS011;34369;51.174;6.738;2023-04-03T07:59:08;31.90;;;29.83;;
48588;SDS011;34369;51.174;6.738;2023-04-03T08:01:41;31.90;;;29.80;;
48588;SDS011;34369;51.174;6.738;2023-04-03T08:04:13;32.38;;;30.17;;
48588;SDS011;34369;51.174;6.738;2023-04-03T08:06:46;32.50;;;30.40;;
48588;SDS011;34369;51.174;6.738;2023-04-03T08:09:20;30.90;;;28.80;;
48588;SDS011;34369;51.174;6.738;2023-04-03T08:11:52;31.83;;;29.70;;
48588;SDS011;34369;51.174;6.738;2023-04-03T08:14:24;31.00;;;28.90;;
48588;SDS011;34369;51.174;6.738;2023-04-03T08:16:56;29.98;;;27.88;;
48588;SDS011;34369;51.174;6.738;2023-04-03T08:19:28;29.25;;;27.05;;
48588;SDS011;34369;51.174;6.738;2023-04-03T08:22:00;29.05;;;27.08;;
48588;SDS011;34369;51.174;6.738;2023-04-03T08:24:35;27.25;;;25.27;;
48588;SDS011;34369;51.174;6.738;2023-04-03T08:27:07;27.40;;;25.50;;
48588;SDS011;34369;51.174;6.738;2023-04-03T08:29:39;26.90;;;25.10;;
48588;SDS011;34369;51.174;6.738;2023-04-03T08:32:12;26.90;;;25.00;;
48588;SDS011;34369;51.174;6.738;2023-04-03T08:34:44;28.52;;;26.45;;
48588;SDS011;34369;51.174;6.738;2023-04-03T08:37:16;28.63;;;26.63;;
48588;SDS011;34369;51.174;6.738;2023-04-03T08:39:50;28.67;;;26.85;;
48588;SDS011;34369;51.174;6.738;2023-04-03T08:42:28;28.70;;;26.80;;
48588;SDS011;34369;51.174;6.738;2023-04-03T08:45:15;27.65;;;25.85;;
48588;SDS011;34369;51.174;6.738;2023-04-03T08:47:52;27.70;;;25.80;;
48588;SDS011;34369;51.174;6.738;2023-04-03T08:50:31;26.92;;;25.10;;
48588;SDS011;34369;51.174;6.738;2023-04-03T08:53:11;26.60;;;24.70;;
48588;SDS011;34369;51.174;6.738;2023-04-03T08:58:21;26.33;;;24.52;;
48588;SDS011;34369;51.174;6.738;2023-04-03T09:00:57;26.20;;;24.30;;
48588;SDS011;34369;51.174;6.738;2023-04-03T09:03:33;25.98;;;24.17;;
48588;SDS011;34369;51.174;6.738;2023-04-03T09:06:10;25.00;;;23.20;;
48588;SDS011;34369;51.174;6.738;2023-04-03T09:08:47;24.73;;;23.00;;
48588;SDS011;34369;51.174;6.738;2023-04-03T09:11:33;24.00;;;22.30;;
48588;SDS011;34369;51.174;6.738;2023-04-03T09:14:19;23.73;;;22.02;;
48588;SDS011;34369;51.174;6.738;2023-04-03T09:16:58;23.83;;;22.13;;
48588;SDS011;34369;51.174;6.738;2023-04-03T09:19:34;24.50;;;22.80;;
48588;SDS011;34369;51.174;6.738;2023-04-03T09:22:13;23.65;;;21.95;;
48588;SDS011;34369;51.174;6.738;2023-04-03T09:24:51;24.25;;;22.50;;
48588;SDS011;34369;51.174;6.738;2023-04-03T09:27:30;23.98;;;22.27;;
48588;SDS011;34369;51.174;6.738;2023-04-03T09:30:02;24.17;;;22.33;;
48588;SDS011;34369;51.174;6.738;2023-04-03T09:32:36;24.67;;;22.98;;
48588;SDS011;34369;51.174;6.738;2023-04-03T09:35:16;25.40;;;23.60;;
48588;SDS011;34369;51.174;6.738;2023-04-03T09:37:53;25.50;;;23.67;;
48588;SDS011;34369;51.174;6.738;2023-04-03T09:40:31;27.17;;;25.27;;
48588;SDS011;34369;51.174;6.738;2023-04-03T09:43:20;26.70;;;24.80;;
48588;SDS011;34369;51.174;6.738;2023-04-03T09:48:57;28.35;;;26.55;;
48588;SDS011;34369;51.174;6.738;2023-04-03T09:51:30;28.48;;;26.58;;
48588;SDS011;34369;51.174;6.738;2023-04-03T09:54:23;30.80;;;28.70;;
48588;SDS011;34369;51.174;6.738;2023-04-03T09:57:07;29.33;;;27.40;;
48588;SDS011;34369;51.174;6.738;2023-04-03T09:59:46;29.63;;;27.73;;
48588;SDS011;34369;51.174;6.738;2023-04-03T10:02:34;30.73;;;28.73;;
48588;SDS011;34369;51.174;6.738;2023-04-03T10:08:09;30.97;;;28.97;;
48588;SDS011;34369;51.174;6.738;2023-04-03T10:11:13;30.33;;;28.33;;
48588;SDS011;34369;51.174;6.738;2023-04-03T10:13:51;32.75;;;30.60;;
48588;SDS011;34369;51.174;6.738;2023-04-03T10:16:34;31.45;;;29.45;;
48588;SDS011;34369;51.174;6.738;2023-04-03T10:19:13;31.25;;;29.15;;
48588;SDS011;34369;51.174;6.738;2023-04-03T10:22:03;32.50;;;30.40;;
48588;SDS011;34369;51.174;6.738;2023-04-03T10:24:56;31.98;;;29.98;;
48588;SDS011;34369;51.174;6.738;2023-04-03T10:27:38;32.40;;;30.02;;
48588;SDS011;34369;51.174;6.738;2023-04-03T10:30:22;32.47;;;30.40;;
48588;SDS011;34369;51.174;6.738;2023-04-03T10:33:11;32.20;;;30.13;;
48588;SDS011;34369;51.174;6.738;2023-04-03T10:36:02;31.70;;;29.70;;
48588;SDS011;34369;51.174;6.738;2023-04-03T10:38:48;31.10;;;29.10;;
48588;SDS011;34369;51.174;6.738;2023-04-03T10:41:32;31.07;;;29.07;;
48588;SDS011;34369;51.174;6.738;2023-04-03T10:44:20;31.35;;;29.25;;
48588;SDS011;34369;51.174;6.738;2023-04-03T10:47:07;30.15;;;28.25;;
48588;SDS011;34369;51.174;6.738;2023-04-03T10:49:47;30.23;;;28.33;;
48588;SDS011;34369;51.174;6.738;2023-04-03T10:52:29;30.70;;;28.60;;
48588;SDS011;34369;51.174;6.738;2023-04-03T10:55:15;31.58;;;29.58;;
48588;SDS011;34369;51.174;6.738;2023-04-03T10:57:59;30.77;;;28.87;;
48588;SDS011;34369;51.174;6.738;2023-04-03T11:00:37;30.85;;;28.95;;
48588;SDS011;34369;51.174;6.738;2023-04-03T11:03:14;32.25;;;30.25;;
48588;SDS011;34369;51.174;6.738;2023-04-03T11:06:01;31.98;;;29.98;;
48588;SDS011;34369;51.174;6.738;2023-04-03T11:08:38;31.10;;;29.10;;
48588;SDS011;34369;51.174;6.738;2023-04-03T11:11:16;30.08;;;28.17;;
48588;SDS011;34369;51.174;6.738;2023-04-03T11:13:52;28.73;;;26.83;;
48588;SDS011;34369;51.174;6.738;2023-04-03T11:16:30;29.35;;;27.45;;
48588;SDS011;34369;51.174;6.738;2023-04-03T11:19:11;30.70;;;28.70;;
48588;SDS011;34369;51.174;6.738;2023-04-03T11:21:54;30.30;;;28.30;;
48588;SDS011;34369;51.174;6.738;2023-04-03T11:24:29;30.27;;;28.38;;
48588;SDS011;34369;51.174;6.738;2023-04-03T11:27:04;31.10;;;29.10;;
48588;SDS011;34369;51.174;6.738;2023-04-03T11:29:38;29.98;;;28.08;;
48588;SDS011;34369;51.174;6.738;2023-04-03T11:32:17;29.95;;;28.05;;
48588;SDS011;34369;51.174;6.738;2023-04-03T11:35:08;30.65;;;28.63;;
48588;SDS011;34369;51.174;6.738;2023-04-03T11:37:44;29.55;;;27.63;;
48588;SDS011;34369;51.174;6.738;2023-04-03T11:40:21;27.75;;;25.85;;
48588;SDS011;34369;51.174;6.738;2023-04-03T11:43:03;27.73;;;25.92;;
48588;SDS011;34369;51.174;6.738;2023-04-03T11:45:46;27.40;;;25.50;;
48588;SDS011;34369;51.174;6.738;2023-04-03T11:48:45;26.77;;;24.98;;
48588;SDS011;34369;51.174;6.738;2023-04-03T11:54:36;25.90;;;24.20;;
48588;SDS011;34369;51.174;6.738;2023-04-03T12:00:46;24.10;;;22.40;;
48588;SDS011;34369;51.174;6.738;2023-04-03T12:06:52;23.65;;;21.95;;
48588;SDS011;34369;51.174;6.738;2023-04-03T12:12:56;24.40;;;22.70;;
48588;SDS011;34369;51.174;6.738;2023-04-03T12:18:31;25.50;;;23.70;;
48588;SDS011;34369;51.174;6.738;2023-04-03T12:21:15;25.25;;;23.52;;
48588;SDS011;34369;51.174;6.738;2023-04-03T12:23:59;26.75;;;25.02;;
48588;SDS011;34369;51.174;6.738;2023-04-03T12:29:14;26.65;;;24.85;;
48588;SDS011;34369;51.174;6.738;2023-04-03T12:31:55;27.40;;;25.60;;
48588;SDS011;34369;51.174;6.738;2023-04-03T12:34:55;26.80;;;25.00;;
48588;SDS011;34369;51.174;6.738;2023-04-03T12:37:44;27.45;;;25.70;;
48588;SDS011;34369;51.174;6.738;2023-04-03T12:41:10;27.20;;;25.40;;
48588;SDS011;34369;51.174;6.738;2023-04-03T12:43:58;27.67;;;25.88;;
48588;SDS011;34369;51.174;6.738;2023-04-03T12:46:47;27.00;;;25.10;;
48588;SDS011;34369;51.174;6.738;2023-04-03T12:52:05;26.83;;;25.08;;
48588;SDS011;34369;51.174;6.738;2023-04-03T12:54:49;27.23;;;25.35;;
48588;SDS011;34369;51.174;6.738;2023-04-03T12:57:24;26.90;;;25.00;;
48588;SDS011;34369;51.174;6.738;2023-04-03T12:59:59;27.58;;;25.77;;
48588;SDS011;34369;51.174;6.738;2023-04-03T13:02:50;27.20;;;25.40;;
48588;SDS011;34369;51.174;6.738;2023-04-03T13:05:22;27.40;;;25.40;;
48588;SDS011;34369;51.174;6.738;2023-04-03T13:07:56;26.88;;;25.17;;
48588;SDS011;34369;51.174;6.738;2023-04-03T13:10:35;26.35;;;24.58;;
48588;SDS011;34369;51.174;6.738;2023-04-03T13:13:21;26.17;;;24.20;;
48588;SDS011;34369;51.174;6.738;2023-04-03T13:15:55;25.75;;;24.00;;
48588;SDS011;34369;51.174;6.738;2023-04-03T13:18:29;24.70;;;23.08;;
48588;SDS011;34369;51.174;6.738;2023-04-03T13:21:04;24.60;;;22.80;;
48588;SDS011;34369;51.174;6.738;2023-04-03T13:23:42;24.30;;;22.60;;
48588;SDS011;34369;51.174;6.738;2023-04-03T13:26:18;24.95;;;23.15;;
48588;SDS011;34369;51.174;6.738;2023-04-03T13:28:53;23.50;;;21.80;;
48588;SDS011;34369;51.174;6.738;2023-04-03T13:31:34;22.38;;;20.77;;
48588;SDS011;34369;51.174;6.738;2023-04-03T13:34:10;22.50;;;20.90;;
48588;SDS011;34369;51.174;6.738;2023-04-03T13:36:45;22.77;;;21.10;;
48588;SDS011;34369;51.174;6.738;2023-04-03T13:39:28;22.70;;;20.90;;
48588;SDS011;34369;51.174;6.738;2023-04-03T13:42:03;22.70;;;20.90;;
48588;SDS011;34369;51.174;6.738;2023-04-03T13:44:48;22.13;;;20.52;;
48588;SDS011;34369;51.174;6.738;2023-04-03T13:47:22;22.48;;;20.88;;
48588;SDS011;34369;51.174;6.738;2023-04-03T13:49:59;22.40;;;20.80;;
48588;SDS011;34369;51.174;6.738;2023-04-03T13:52:34;23.50;;;21.80;;
48588;SDS011;34369;51.174;6.738;2023-04-03T13:55:18;23.05;;;21.35;;
48588;SDS011;34369;51.174;6.738;2023-04-03T13:57:55;22.77;;;21.08;;
48588;SDS011;34369;51.174;6.738;2023-04-03T14:00:33;23.13;;;21.42;;
48588;SDS011;34369;51.174;6.738;2023-04-03T14:03:13;23.27;;;21.58;;
48588;SDS011;34369;51.174;6.738;2023-04-03T14:05:50;23.88;;;22.23;;
48588;SDS011;34369;51.174;6.738;2023-04-03T14:08:22;23.08;;;21.48;;
48588;SDS011;34369;51.174;6.738;2023-04-03T14:10:55;24.30;;;22.50;;
48588;SDS011;34369;51.174;6.738;2023-04-03T14:13:29;24.17;;;22.48;;
48588;SDS011;34369;51.174;6.738;2023-04-03T14:16:02;25.55;;;23.85;;
48588;SDS011;34369;51.174;6.738;2023-04-03T14:18:38;24.92;;;23.15;;
48588;SDS011;34369;51.174;6.738;2023-04-03T14:21:11;25.40;;;23.60;;
48588;SDS011;34369;51.174;6.738;2023-04-03T14:23:45;26.10;;;24.20;;
48588;SDS011;34369;51.174;6.738;2023-04-03T14:26:18;25.85;;;24.15;;
48588;SDS011;34369;51.174;6.738;2023-04-03T14:28:53;26.35;;;24.55;;
48588;SDS011;34369;51.174;6.738;2023-04-03T14:31:26;26.63;;;24.80;;
48588;SDS011;34369;51.174;6.738;2023-04-03T14:34:00;27.15;;;25.35;;
48588;SDS011;34369;51.174;6.738;2023-04-03T14:36:32;26.30;;;24.60;;
48588;SDS011;34369;51.174;6.738;2023-04-03T14:39:04;26.92;;;25.10;;
48588;SDS011;34369;51.174;6.738;2023-04-03T14:41:38;27.05;;;25.17;;
48588;SDS011;34369;51.174;6.738;2023-04-03T14:44:10;27.60;;;25.70;;
48588;SDS011;34369;51.174;6.738;2023-04-03T14:46:43;26.73;;;24.92;;
48588;SDS011;34369;51.174;6.738;2023-04-03T14:49:19;27.88;;;25.98;;
48588;SDS011;34369;51.174;6.738;2023-04-03T14:51:55;27.23;;;25.40;;
48588;SDS011;34369;51.174;6.738;2023-04-03T14:54:28;26.85;;;25.05;;
48588;SDS011;34369;51.174;6.738;2023-04-03T14:57:00;26.77;;;24.88;;
48588;SDS011;34369;51.174;6.738;2023-04-03T14:59:33;27.88;;;25.98;;
48588;SDS011;34369;51.174;6.738;2023-04-03T15:02:10;27.27;;;25.48;;
48588;SDS011;34369;51.174;6.738;2023-04-03T15:05:00;28.13;;;26.17;;
48588;SDS011;34369;51.174;6.738;2023-04-03T15:07:36;27.92;;;26.02;;
48588;SDS011;34369;51.174;6.738;2023-04-03T15:10:15;27.92;;;26.02;;
48588;SDS011;34369;51.174;6.738;2023-04-03T15:12:50;27.52;;;25.70;;
48588;SDS011;34369;51.174;6.738;2023-04-03T15:15:23;26.75;;;24.95;;
48588;SDS011;34369;51.174;6.738;2023-04-03T15:18:00;27.75;;;25.95;;
48588;SDS011;34369;51.174;6.738;2023-04-03T15:20:34;27.75;;;25.90;;
48588;SDS011;34369;51.174;6.738;2023-04-03T15:23:06;28.55;;;26.55;;
48588;SDS011;34369;51.174;6.738;2023-04-03T15:25:38;28.58;;;26.67;;
48588;SDS011;34369;51.174;6.738;2023-04-03T15:28:13;29.13;;;26.90;;
48588;SDS011;34369;51.174;6.738;2023-04-03T15:30:51;28.70;;;26.80;;
48588;SDS011;34369;51.174;6.738;2023-04-03T15:33:23;27.92;;;26.02;;
48588;SDS011;34369;51.174;6.738;2023-04-03T15:35:57;28.73;;;26.83;;
48588;SDS011;34369;51.174;6.738;2023-04-03T15:38:32;28.35;;;26.45;;
48588;SDS011;34369;51.174;6.738;2023-04-03T15:41:05;34.65;;;28.08;;